createdAt,value
2022-08-26T00:17:27.446Z,76
2022-08-26T00:37:29.337Z,76
2022-08-26T00:47:31.122Z,76
2022-08-26T01:17:33.719Z,77
2022-08-26T01:37:33.243Z,78
2022-08-26T01:47:33.708Z,78
2022-08-26T01:57:34.646Z,80
2022-08-26T02:07:34.965Z,80
2022-08-26T02:17:35.609Z,82
2022-08-26T02:47:37.701Z,86
2022-08-26T03:07:38.118Z,91
2022-08-26T03:17:38.659Z,90
2022-08-26T03:27:39.420Z,91
2022-08-26T03:47:40.816Z,93
2022-08-26T03:57:41.895Z,95
2022-08-26T04:07:42.556Z,98
2022-08-26T04:17:43.035Z,97
2022-08-26T04:47:45.799Z,97
2022-08-26T04:57:46.287Z,97
2022-08-26T05:07:47.058Z,97
2022-08-26T05:27:48.640Z,96
2022-08-26T05:37:49.275Z,97
2022-08-26T05:57:50.160Z,96
2022-08-26T06:07:51.117Z,96
2022-08-26T06:27:51.617Z,95
2022-08-26T06:47:53.308Z,94
2022-08-26T07:17:54.615Z,93
2022-08-26T07:37:57.114Z,93
2022-08-26T07:47:56.831Z,93
2022-08-26T08:08:00.836Z,91
2022-08-26T08:18:00.262Z,92
2022-08-26T08:27:59.246Z,90
2022-08-26T08:58:06.838Z,90
2022-08-26T09:18:01.365Z,89
2022-08-26T09:48:02.562Z,87
2022-08-26T10:18:04.250Z,85
2022-08-26T11:18:08.769Z,83
2022-08-26T11:58:11.598Z,81
2022-08-26T12:18:12.607Z,81
2022-08-26T12:58:14.223Z,79
2022-08-26T13:08:15.179Z,78
2022-08-26T13:18:15.402Z,78
2022-08-26T13:28:16.157Z,78
2022-08-26T13:38:18.537Z,79
2022-08-26T13:58:17.807Z,78
2022-08-26T14:38:19.488Z,79
2022-08-26T14:58:20.522Z,79
2022-08-26T15:28:22.274Z,81
2022-08-26T15:38:22.750Z,83
2022-08-26T16:18:24.016Z,83
2022-08-26T16:48:25.141Z,82
2022-08-26T16:58:25.329Z,82
2022-08-26T18:38:32.117Z,84
2022-08-26T18:58:33.278Z,85
2022-08-26T19:28:35.248Z,87
2022-08-26T19:38:35.733Z,88
2022-08-26T19:48:35.891Z,88
2022-08-26T19:58:36.383Z,90
2022-08-26T20:08:36.730Z,91
2022-08-26T20:18:37.091Z,93
2022-08-26T20:28:37.525Z,94
2022-08-26T20:38:37.751Z,94
2022-08-26T20:58:38.993Z,96
2022-08-26T21:08:42.497Z,96
2022-08-26T21:28:40.860Z,98
2022-08-26T21:38:41.423Z,100
2022-08-26T21:48:42.351Z,100
2022-08-26T22:58:46.590Z,100
2022-08-26T23:58:50.593Z,100
